createdAt,value
2023-05-18T00:00:02.452Z,10.18
2023-05-18T00:02:29.080Z,13.27
2023-05-18T00:04:55.671Z,16.45
2023-05-18T00:07:22.479Z,13.52
2023-05-18T00:09:49.024Z,16.05
2023-05-18T00:12:15.667Z,13.88
2023-05-18T00:14:42.190Z,14.63
2023-05-18T00:17:08.675Z,15.10
2023-05-18T00:19:35.168Z,11.40
2023-05-18T00:22:02.287Z,11.35
2023-05-18T00:24:28.948Z,10.23
2023-05-18T00:26:55.507Z,13.63
2023-05-18T00:29:22.073Z,14.50
2023-05-18T00:31:48.752Z,13.65
2023-05-18T00:34:16.204Z,8.85
2023-05-18T00:36:42.987Z,19.73
2023-05-18T00:39:09.671Z,10.27
2023-05-18T00:41:36.572Z,9.55
2023-05-18T00:44:04.642Z,15.07
2023-05-18T00:46:31.405Z,13.45
2023-05-18T00:48:58.848Z,15.85
2023-05-18T00:51:26.065Z,14.40
2023-05-18T00:53:54.986Z,19.35
2023-05-18T00:56:26.338Z,13.27
2023-05-18T00:58:57.565Z,22.95
2023-05-18T01:01:29.605Z,17.08
2023-05-18T01:03:57.965Z,13.30
2023-05-18T01:07:16.811Z,13.18
2023-05-18T01:09:43.357Z,17.65
2023-05-18T01:12:33.092Z,16.30
2023-05-18T01:15:05.468Z,20.48
2023-05-18T01:18:05.102Z,16.52
2023-05-18T01:20:38.086Z,20.80
2023-05-18T01:23:45.240Z,16.85
2023-05-18T01:26:16.795Z,17.50
2023-05-18T01:28:46.542Z,20.20
2023-05-18T01:31:16.117Z,26.35
2023-05-18T01:33:44.491Z,24.20
2023-05-18T01:36:11.473Z,26.00
2023-05-18T01:38:41.676Z,12.93
2023-05-18T01:41:24.303Z,15.43
2023-05-18T01:44:24.767Z,24.92
2023-05-18T01:47:00.211Z,16.88
2023-05-18T01:49:37.652Z,16.77
2023-05-18T01:52:09.058Z,16.90
2023-05-18T01:54:38.553Z,14.23
2023-05-18T01:57:08.327Z,19.23
2023-05-18T01:59:36.225Z,19.80
2023-05-18T02:02:03.583Z,18.95
2023-05-18T02:04:30.227Z,26.17
2023-05-18T02:06:56.943Z,24.35
2023-05-18T02:09:23.636Z,13.57
2023-05-18T02:11:50.149Z,13.57
2023-05-18T02:14:16.669Z,17.23
2023-05-18T02:16:47.412Z,12.18
2023-05-18T02:19:17.531Z,17.83
2023-05-18T02:21:44.669Z,17.73
2023-05-18T02:24:12.545Z,15.15
2023-05-18T02:26:39.754Z,19.65
2023-05-18T02:29:06.680Z,15.50
2023-05-18T02:31:33.275Z,20.13
2023-05-18T02:33:59.813Z,19.88
2023-05-18T02:36:26.303Z,12.82
2023-05-18T02:38:52.970Z,11.50
2023-05-18T02:41:19.504Z,16.73
2023-05-18T02:43:45.943Z,18.40
2023-05-18T02:46:12.435Z,22.08
2023-05-18T02:48:38.976Z,20.60
2023-05-18T02:51:05.481Z,13.95
2023-05-18T02:53:32.032Z,19.10
2023-05-18T02:55:58.544Z,18.58
2023-05-18T02:58:25.661Z,20.60
2023-05-18T03:00:55.186Z,13.40
2023-05-18T03:03:23.848Z,16.65
2023-05-18T03:05:52.959Z,18.33
2023-05-18T03:08:26.927Z,20.27
2023-05-18T03:10:53.590Z,16.05
2023-05-18T03:13:20.236Z,18.08
2023-05-18T03:15:47.104Z,16.40
2023-05-18T03:18:13.636Z,17.63
2023-05-18T03:20:40.687Z,16.77
2023-05-18T03:23:07.451Z,19.20
2023-05-18T03:25:37.235Z,17.33
2023-05-18T03:28:05.458Z,16.70
2023-05-18T03:30:34.032Z,13.75
2023-05-18T03:33:01.997Z,24.13
2023-05-18T03:35:29.173Z,16.83
2023-05-18T03:37:56.100Z,22.30
2023-05-18T03:40:23.231Z,21.20
2023-05-18T03:42:49.773Z,18.83
2023-05-18T03:45:16.414Z,19.05
2023-05-18T03:47:43.078Z,14.15
2023-05-18T03:50:10.603Z,24.05
2023-05-18T03:52:37.385Z,17.40
2023-05-18T03:55:05.093Z,16.85
2023-05-18T03:57:32.277Z,13.32
2023-05-18T03:59:58.857Z,15.98
2023-05-18T04:02:25.867Z,16.27
2023-05-18T04:04:54.564Z,19.40
2023-05-18T04:07:24.234Z,15.85
2023-05-18T04:09:55.633Z,18.73
2023-05-18T04:12:22.566Z,20.92
2023-05-18T04:14:51.712Z,18.83
2023-05-18T04:17:22.239Z,22.50
2023-05-18T04:19:50.085Z,17.50
2023-05-18T04:22:17.256Z,16.48
2023-05-18T04:24:45.730Z,22.20
2023-05-18T04:27:12.368Z,16.63
2023-05-18T04:29:40.246Z,18.10
2023-05-18T04:32:08.033Z,17.92
2023-05-18T04:34:37.988Z,21.42
2023-05-18T04:37:07.982Z,24.42
2023-05-18T04:39:35.130Z,15.50
2023-05-18T04:42:04.541Z,22.80
2023-05-18T04:44:34.114Z,21.33
2023-05-18T04:47:00.921Z,21.25
2023-05-18T04:49:28.248Z,18.38
2023-05-18T04:51:56.718Z,23.88
2023-05-18T04:54:24.159Z,17.63
2023-05-18T04:56:51.656Z,18.98
2023-05-18T04:59:18.862Z,17.60
2023-05-18T05:01:46.341Z,15.65
2023-05-18T05:04:13.423Z,21.02
2023-05-18T05:06:39.966Z,21.20
2023-05-18T05:09:06.460Z,13.35
2023-05-18T05:11:33.028Z,18.35
2023-05-18T05:14:04.140Z,15.13
2023-05-18T05:16:30.981Z,17.50
2023-05-18T05:18:57.622Z,22.00
2023-05-18T05:21:24.251Z,19.25
2023-05-18T05:23:50.865Z,20.38
2023-05-18T05:26:18.230Z,15.02
2023-05-18T05:28:44.748Z,13.60
2023-05-18T05:31:11.596Z,13.70
2023-05-18T05:33:38.347Z,15.68
2023-05-18T05:36:05.427Z,25.45
2023-05-18T05:38:32.641Z,12.90
2023-05-18T05:40:59.253Z,27.00
2023-05-18T05:43:26.347Z,21.33
2023-05-18T05:45:54.268Z,16.38
2023-05-18T05:48:20.957Z,20.67
2023-05-18T05:50:47.523Z,13.73
2023-05-18T05:53:17.778Z,16.77
2023-05-18T05:55:44.294Z,14.63
2023-05-18T05:58:11.140Z,12.10
2023-05-18T06:00:37.688Z,16.90
2023-05-18T06:03:04.199Z,18.52
2023-05-18T06:05:30.944Z,19.17
2023-05-18T06:07:57.653Z,20.20
2023-05-18T06:10:24.256Z,21.35
2023-05-18T06:12:50.950Z,22.65
2023-05-18T06:15:18.864Z,13.35
2023-05-18T06:17:45.571Z,20.05
2023-05-18T06:20:12.896Z,19.83
2023-05-18T06:22:39.541Z,14.25
2023-05-18T06:25:06.196Z,15.70
2023-05-18T06:27:33.021Z,16.35
2023-05-18T06:29:59.475Z,14.15
2023-05-18T06:32:26.108Z,15.20
2023-05-18T06:34:52.744Z,16.70
2023-05-18T06:37:20.639Z,14.55
2023-05-18T06:39:47.200Z,22.70
2023-05-18T06:42:13.720Z,14.05
2023-05-18T06:44:40.160Z,20.40
2023-05-18T06:47:07.048Z,13.73
2023-05-18T06:49:33.686Z,16.55
2023-05-18T06:52:00.184Z,21.25
2023-05-18T06:54:26.822Z,22.65
2023-05-18T06:56:53.334Z,18.50
2023-05-18T06:59:19.824Z,11.20
2023-05-18T07:01:46.493Z,19.02
2023-05-18T07:04:13.259Z,13.90
2023-05-18T07:06:39.901Z,15.10
2023-05-18T07:09:08.026Z,17.35
2023-05-18T07:11:34.619Z,14.57
2023-05-18T07:14:01.552Z,13.52
2023-05-18T07:16:28.292Z,13.68
2023-05-18T07:18:54.901Z,16.02
2023-05-18T07:21:21.483Z,20.63
2023-05-18T07:23:47.961Z,15.32
2023-05-18T07:26:14.446Z,21.90
2023-05-18T07:28:41.034Z,10.70
2023-05-18T07:31:07.697Z,13.93
2023-05-18T07:33:34.475Z,16.40
2023-05-18T07:36:01.088Z,13.00
2023-05-18T07:38:28.536Z,19.35
2023-05-18T07:40:55.008Z,17.90
2023-05-18T07:43:21.494Z,10.20
2023-05-18T07:45:47.995Z,13.60
2023-05-18T07:48:14.548Z,16.27
2023-05-18T07:50:41.383Z,11.10
2023-05-18T07:53:07.892Z,10.85
2023-05-18T07:55:34.547Z,11.30
2023-05-18T07:58:01.118Z,16.02
2023-05-18T08:00:28.100Z,12.45
2023-05-18T08:02:55.007Z,9.38
2023-05-18T08:05:22.694Z,10.10
2023-05-18T08:07:49.592Z,12.90
2023-05-18T08:10:16.088Z,9.20
2023-05-18T08:12:42.709Z,9.40
2023-05-18T08:15:10.496Z,16.77
2023-05-18T08:17:37.031Z,12.57
2023-05-18T08:20:04.996Z,11.90
2023-05-18T08:22:31.451Z,11.63
2023-05-18T08:25:00.876Z,12.57
2023-05-18T08:27:28.841Z,12.32
2023-05-18T08:29:55.305Z,9.65
2023-05-18T08:32:21.903Z,9.95
2023-05-18T08:34:51.312Z,14.30
2023-05-18T08:37:17.864Z,15.23
2023-05-18T08:39:46.092Z,11.18
2023-05-18T08:42:49.507Z,10.38
2023-05-18T08:45:33.148Z,10.30
2023-05-18T08:48:01.642Z,11.40
2023-05-18T08:50:32.013Z,10.73
2023-05-18T08:53:02.344Z,13.73
2023-05-18T08:55:29.592Z,10.98
2023-05-18T08:58:00.090Z,7.68
2023-05-18T09:00:27.363Z,13.82
2023-05-18T09:02:54.459Z,11.15
2023-05-18T09:05:22.975Z,14.05
2023-05-18T09:07:52.428Z,6.82
2023-05-18T09:10:19.046Z,7.60
2023-05-18T09:12:47.199Z,10.10
2023-05-18T09:15:15.866Z,13.40
2023-05-18T09:17:42.489Z,10.60
2023-05-18T09:20:10.143Z,9.55
2023-05-18T09:22:37.174Z,12.95
2023-05-18T09:25:04.111Z,16.10
2023-05-18T09:27:31.081Z,10.68
2023-05-18T09:29:58.654Z,8.98
2023-05-18T09:32:26.505Z,11.63
2023-05-18T09:34:53.889Z,10.02
2023-05-18T09:37:21.872Z,10.32
2023-05-18T09:39:59.209Z,8.20
2023-05-18T09:42:39.436Z,10.55
2023-05-18T09:45:16.232Z,13.82
2023-05-18T09:47:42.869Z,12.20
2023-05-18T09:50:09.736Z,14.55
2023-05-18T09:52:47.227Z,10.27
2023-05-18T09:55:16.623Z,10.80
2023-05-18T09:57:44.671Z,10.85
2023-05-18T10:00:12.782Z,9.35
2023-05-18T10:02:48.617Z,8.73
2023-05-18T10:05:20.235Z,11.63
2023-05-18T10:10:19.640Z,10.98
2023-05-18T10:12:46.461Z,9.15
2023-05-18T10:15:18.155Z,11.60
2023-05-18T10:17:46.693Z,9.18
2023-05-18T10:20:17.390Z,15.05
2023-05-18T10:22:46.446Z,8.48
2023-05-18T10:25:19.455Z,7.95
2023-05-18T10:27:48.282Z,13.43
2023-05-18T10:30:16.532Z,8.02
2023-05-18T10:32:43.821Z,10.98
2023-05-18T10:35:11.151Z,14.02
2023-05-18T10:37:40.210Z,10.13
2023-05-18T10:40:08.558Z,9.02
2023-05-18T10:42:35.237Z,9.57
2023-05-18T10:45:02.855Z,8.75
2023-05-18T10:47:29.627Z,12.85
2023-05-18T10:49:59.682Z,11.35
2023-05-18T10:52:31.714Z,7.90
2023-05-18T10:55:01.606Z,8.13
2023-05-18T10:57:37.969Z,11.82
2023-05-18T11:00:07.849Z,8.52
2023-05-18T11:02:35.162Z,12.77
2023-05-18T11:05:05.777Z,12.30
2023-05-18T11:07:34.014Z,11.10
2023-05-18T11:10:08.658Z,14.73
2023-05-18T11:12:38.239Z,9.88
2023-05-18T11:15:05.954Z,11.77
2023-05-18T11:17:32.834Z,11.70
2023-05-18T11:20:09.051Z,13.57
2023-05-18T11:22:45.342Z,12.75
2023-05-18T11:25:24.086Z,17.58
2023-05-18T11:27:52.169Z,9.60
2023-05-18T11:30:34.025Z,10.95
2023-05-18T11:33:24.490Z,13.85
2023-05-18T11:36:09.436Z,12.93
2023-05-18T11:38:49.531Z,10.05
2023-05-18T11:41:29.262Z,12.75
2023-05-18T11:44:15.925Z,8.75
2023-05-18T11:46:56.350Z,12.77
2023-05-18T11:49:28.527Z,13.23
2023-05-18T11:52:06.129Z,7.38
2023-05-18T11:54:42.837Z,8.82
2023-05-18T11:57:11.250Z,12.07
2023-05-18T11:59:39.161Z,14.32
2023-05-18T12:02:06.378Z,12.70
2023-05-18T12:04:34.107Z,9.38
2023-05-18T12:07:05.699Z,8.18
2023-05-18T12:11:58.813Z,10.65
2023-05-18T12:14:26.636Z,8.77
2023-05-18T12:16:54.616Z,10.10
2023-05-18T12:19:23.476Z,13.40
2023-05-18T12:21:50.033Z,9.55
2023-05-18T12:24:16.923Z,12.05
2023-05-18T12:26:46.612Z,9.35
2023-05-18T12:29:20.052Z,14.60
2023-05-18T12:31:47.677Z,9.60
2023-05-18T12:34:14.900Z,10.88
2023-05-18T12:36:54.745Z,7.40
2023-05-18T12:39:21.763Z,8.88
2023-05-18T12:41:48.780Z,12.02
2023-05-18T12:44:15.475Z,15.63
2023-05-18T12:46:43.301Z,7.85
2023-05-18T12:49:10.839Z,12.15
2023-05-18T12:51:39.039Z,10.52
2023-05-18T12:54:06.961Z,9.90
2023-05-18T12:56:51.530Z,10.50
2023-05-18T12:59:21.042Z,12.35
2023-05-18T13:01:47.674Z,9.88
2023-05-18T13:04:14.291Z,11.43
2023-05-18T13:06:41.989Z,11.88
2023-05-18T13:09:17.688Z,8.70
2023-05-18T13:11:59.982Z,8.57
2023-05-18T13:14:38.121Z,9.38
2023-05-18T13:17:04.916Z,8.30
2023-05-18T13:19:35.731Z,9.30
2023-05-18T13:22:02.294Z,7.60
2023-05-18T13:24:28.993Z,7.75
2023-05-18T13:26:55.528Z,7.97
2023-05-18T13:29:22.060Z,9.95
2023-05-18T13:31:48.614Z,12.50
2023-05-18T13:34:15.131Z,12.05
2023-05-18T13:36:41.688Z,11.80
2023-05-18T13:39:08.359Z,8.30
2023-05-18T13:41:36.368Z,6.47
2023-05-18T13:44:03.441Z,10.35
2023-05-18T13:46:30.033Z,9.18
2023-05-18T13:48:56.544Z,9.13
2023-05-18T13:51:23.044Z,13.18
2023-05-18T13:53:49.603Z,8.60
2023-05-18T13:56:16.333Z,10.73
2023-05-18T13:58:43.654Z,12.70
2023-05-18T14:01:12.759Z,8.02
2023-05-18T14:03:40.607Z,7.22
2023-05-18T14:06:07.491Z,9.57
2023-05-18T14:08:34.224Z,6.75
2023-05-18T14:11:00.861Z,12.45
2023-05-18T14:13:27.399Z,6.53
2023-05-18T14:15:53.902Z,9.60
2023-05-18T14:18:20.364Z,6.47
2023-05-18T14:20:48.446Z,8.43
2023-05-18T14:23:15.025Z,10.38
2023-05-18T14:25:43.566Z,13.60
2023-05-18T14:28:10.426Z,6.82
2023-05-18T14:30:37.152Z,7.50
2023-05-18T14:33:04.084Z,12.23
2023-05-18T14:35:30.616Z,11.07
2023-05-18T14:37:57.070Z,12.20
2023-05-18T14:40:23.651Z,6.72
2023-05-18T14:42:52.253Z,10.15
2023-05-18T14:45:20.543Z,8.07
2023-05-18T14:47:47.183Z,9.48
2023-05-18T14:50:13.706Z,13.63
2023-05-18T14:52:40.278Z,10.00
2023-05-18T14:55:07.048Z,9.52
2023-05-18T14:57:33.641Z,9.98
2023-05-18T15:00:00.946Z,8.57
2023-05-18T15:02:27.822Z,9.50
2023-05-18T15:04:54.456Z,10.55
2023-05-18T15:07:21.015Z,10.35
2023-05-18T15:09:47.501Z,8.23
2023-05-18T15:12:13.987Z,9.35
2023-05-18T15:14:40.459Z,6.18
2023-05-18T15:17:08.474Z,8.90
2023-05-18T15:19:35.012Z,6.47
2023-05-18T15:22:01.660Z,6.03
2023-05-18T15:24:28.204Z,7.55
2023-05-18T15:26:54.770Z,12.45
2023-05-18T15:29:21.629Z,9.93
2023-05-18T15:31:50.891Z,5.13
2023-05-18T15:34:17.677Z,7.45
2023-05-18T15:36:44.149Z,9.38
2023-05-18T15:39:10.630Z,5.28
2023-05-18T15:41:37.211Z,8.32
2023-05-18T15:44:04.002Z,10.15
2023-05-18T15:46:33.107Z,10.98
2023-05-18T15:48:59.826Z,8.07
2023-05-18T15:51:26.357Z,8.82
2023-05-18T15:53:53.112Z,9.60
2023-05-18T15:56:19.795Z,10.65
2023-05-18T15:58:46.389Z,5.35
2023-05-18T16:01:12.915Z,10.63
2023-05-18T16:03:39.734Z,7.00
2023-05-18T16:06:06.557Z,9.43
2023-05-18T16:08:35.583Z,8.60
2023-05-18T16:11:02.364Z,12.27
2023-05-18T16:13:28.883Z,8.57
2023-05-18T16:15:55.455Z,6.75
2023-05-18T16:18:21.968Z,7.95
2023-05-18T16:20:48.714Z,7.80
2023-05-18T16:23:15.157Z,6.82
2023-05-18T16:25:42.175Z,9.30
2023-05-18T16:28:08.691Z,8.48
2023-05-18T16:30:35.162Z,8.07
2023-05-18T16:33:01.832Z,9.80
2023-05-18T16:35:30.932Z,7.20
2023-05-18T16:37:57.861Z,6.57
2023-05-18T16:40:24.370Z,8.10
2023-05-18T16:42:50.881Z,10.18
2023-05-18T16:45:17.395Z,13.05
2023-05-18T16:47:44.598Z,11.45
2023-05-18T16:50:11.306Z,8.57
2023-05-18T16:52:37.754Z,3.95
2023-05-18T16:55:04.515Z,8.13
2023-05-18T16:57:30.991Z,9.45
2023-05-18T16:59:57.470Z,10.18
2023-05-18T17:02:24.478Z,8.30
2023-05-18T17:04:51.101Z,8.32
2023-05-18T17:07:17.729Z,12.45
2023-05-18T17:09:44.629Z,9.23
2023-05-18T17:12:11.920Z,7.07
2023-05-18T17:14:38.521Z,6.18
2023-05-18T17:17:06.157Z,4.07
2023-05-18T17:19:34.769Z,12.98
2023-05-18T17:22:01.452Z,6.53
2023-05-18T17:24:28.071Z,6.72
2023-05-18T17:26:54.732Z,8.93
2023-05-18T17:29:22.074Z,16.45
2023-05-18T17:31:48.877Z,8.68
2023-05-18T17:34:15.576Z,12.93
2023-05-18T17:36:42.624Z,8.93
2023-05-18T17:39:09.474Z,11.18
2023-05-18T17:41:36.354Z,7.75
2023-05-18T17:44:03.122Z,7.82
2023-05-18T17:46:30.096Z,7.55
2023-05-18T17:48:56.856Z,6.47
2023-05-18T17:51:24.658Z,8.05
2023-05-18T17:53:51.598Z,10.77
2023-05-18T17:56:18.254Z,8.05
2023-05-18T17:58:44.766Z,5.38
2023-05-18T18:01:12.157Z,6.45
2023-05-18T18:03:39.034Z,7.32
2023-05-18T18:06:06.420Z,6.90
2023-05-18T18:08:33.320Z,6.68
2023-05-18T18:10:59.870Z,6.63
2023-05-18T18:13:26.650Z,8.35
2023-05-18T18:15:53.492Z,9.18
2023-05-18T18:18:23.356Z,11.35
2023-05-18T18:20:50.031Z,9.90
2023-05-18T18:23:16.512Z,8.07
2023-05-18T18:25:44.036Z,4.78
2023-05-18T18:28:14.937Z,8.27
2023-05-18T18:30:44.238Z,6.25
2023-05-18T18:33:11.663Z,10.52
2023-05-18T18:35:38.278Z,9.27
2023-05-18T18:38:04.937Z,8.55
2023-05-18T18:40:31.667Z,10.68
2023-05-18T18:42:58.406Z,8.70
2023-05-18T18:45:25.681Z,4.78
2023-05-18T18:47:52.404Z,10.05
2023-05-18T18:50:18.892Z,9.63
2023-05-18T18:52:45.612Z,4.57
2023-05-18T18:55:12.107Z,5.72
2023-05-18T18:57:38.773Z,7.05
2023-05-18T19:00:11.086Z,11.88
2023-05-18T19:02:38.405Z,6.03
2023-05-18T19:05:05.536Z,4.78
2023-05-18T19:07:33.097Z,10.98
2023-05-18T19:09:59.760Z,8.27
2023-05-18T19:12:26.251Z,8.82
2023-05-18T19:14:52.750Z,7.82
2023-05-18T19:17:19.395Z,7.32
2023-05-18T19:19:46.070Z,14.35
2023-05-18T19:22:12.562Z,9.60
2023-05-18T19:24:40.044Z,11.80
2023-05-18T19:27:06.606Z,9.50
2023-05-18T19:29:36.457Z,9.88
2023-05-18T19:32:04.741Z,7.45
2023-05-18T19:34:31.617Z,10.45
2023-05-18T19:36:58.221Z,10.07
2023-05-18T19:39:24.763Z,8.00
2023-05-18T19:41:51.369Z,11.52
2023-05-18T19:44:17.871Z,10.13
2023-05-18T19:46:44.358Z,12.45
2023-05-18T19:49:11.138Z,9.55
2023-05-18T19:51:38.124Z,8.40
2023-05-18T19:54:04.724Z,6.93
2023-05-18T19:56:31.280Z,7.47
2023-05-18T19:58:57.873Z,7.15
2023-05-18T20:01:27.199Z,9.75
2023-05-18T20:03:53.820Z,15.65
2023-05-18T20:06:20.471Z,9.35
2023-05-18T20:08:47.934Z,9.82
2023-05-18T20:11:14.983Z,11.13
2023-05-18T20:13:43.776Z,11.50
2023-05-18T20:16:10.340Z,11.68
2023-05-18T20:18:37.553Z,10.48
2023-05-18T20:21:04.322Z,13.73
2023-05-18T20:23:30.871Z,13.07
2023-05-18T20:25:57.492Z,14.65
2023-05-18T20:28:26.152Z,13.90
2023-05-18T20:30:52.606Z,10.45
2023-05-18T20:33:19.341Z,15.52
2023-05-18T20:35:45.978Z,13.73
2023-05-18T20:38:12.641Z,17.33
2023-05-18T20:40:39.269Z,17.48
2023-05-18T20:43:09.949Z,15.95
2023-05-18T20:45:36.733Z,16.27
2023-05-18T20:48:06.468Z,12.45
2023-05-18T20:50:33.810Z,11.57
2023-05-18T20:53:00.617Z,17.48
2023-05-18T20:55:27.478Z,18.45
2023-05-18T20:57:53.958Z,10.27
2023-05-18T21:00:21.644Z,15.93
2023-05-18T21:02:48.788Z,10.70
2023-05-18T21:05:16.286Z,7.30
2023-05-18T21:07:43.722Z,15.60
2023-05-18T21:10:11.283Z,10.02
2023-05-18T21:12:38.240Z,18.30
2023-05-18T21:15:05.180Z,15.70
2023-05-18T21:17:31.922Z,10.95
2023-05-18T21:19:58.580Z,14.85
2023-05-18T21:22:25.184Z,18.15
2023-05-18T21:24:51.644Z,12.48
2023-05-18T21:27:18.119Z,19.02
2023-05-18T21:29:44.635Z,12.55
2023-05-18T21:32:11.402Z,16.13
2023-05-18T21:34:37.983Z,11.93
2023-05-18T21:37:04.888Z,14.77
2023-05-18T21:39:31.371Z,15.38
2023-05-18T21:41:57.908Z,12.88
2023-05-18T21:44:24.400Z,17.83
2023-05-18T21:46:57.834Z,11.85
2023-05-18T21:49:24.513Z,15.75
2023-05-18T21:51:51.361Z,13.75
2023-05-18T21:54:17.872Z,8.85
2023-05-18T21:56:44.510Z,12.55
2023-05-18T21:59:10.999Z,14.68
2023-05-18T22:01:37.577Z,16.55
2023-05-18T22:04:04.310Z,12.02
2023-05-18T22:06:31.150Z,11.30
2023-05-18T22:08:57.754Z,13.52
2023-05-18T22:11:24.609Z,14.73
2023-05-18T22:13:51.442Z,9.48
2023-05-18T22:16:18.021Z,13.10
2023-05-18T22:18:44.708Z,11.40
2023-05-18T22:21:11.327Z,15.93
2023-05-18T22:23:39.162Z,11.10
2023-05-18T22:26:05.791Z,10.88
2023-05-18T22:28:32.282Z,12.60
2023-05-18T22:30:58.751Z,9.57
2023-05-18T22:33:25.573Z,15.05
2023-05-18T22:35:52.080Z,18.23
2023-05-18T22:38:18.717Z,12.68
2023-05-18T22:40:45.623Z,19.55
2023-05-18T22:43:12.289Z,8.05
2023-05-18T22:45:38.955Z,10.82
2023-05-18T22:48:05.665Z,9.32
2023-05-18T22:50:32.416Z,11.35
2023-05-18T22:52:59.055Z,14.57
2023-05-18T22:55:25.600Z,14.30
2023-05-18T22:57:52.075Z,7.13
2023-05-18T23:00:19.149Z,14.60
2023-05-18T23:02:45.916Z,6.60
2023-05-18T23:05:13.481Z,11.20
2023-05-18T23:07:41.861Z,6.82
2023-05-18T23:10:11.272Z,8.88
2023-05-18T23:12:38.473Z,12.55
2023-05-18T23:15:06.156Z,15.93
2023-05-18T23:17:33.808Z,9.43
2023-05-18T23:20:09.959Z,10.70
2023-05-18T23:22:36.507Z,11.57
2023-05-18T23:25:04.694Z,10.65
2023-05-18T23:27:31.359Z,10.52
2023-05-18T23:29:57.935Z,7.57
2023-05-18T23:32:24.913Z,10.93
2023-05-18T23:34:52.975Z,12.05
2023-05-18T23:37:23.058Z,14.18
2023-05-18T23:39:51.851Z,8.55
2023-05-18T23:42:22.919Z,14.82
2023-05-18T23:44:49.714Z,13.57
2023-05-18T23:47:16.716Z,10.63
2023-05-18T23:49:44.326Z,12.82
2023-05-18T23:52:11.727Z,12.95
2023-05-18T23:54:38.698Z,11.93
2023-05-18T23:57:05.733Z,7.70
2023-05-18T23:59:32.522Z,13.07
